Terminal Aerodrome Forecast
Issued by NWS

Home | Current Version | Previous Version | Text Only | Print | Product List | Glossary On
Versions: 1 2 3 4 5 6 7 8 9 10 11 12 13 14
000
FTUS42 TJSJ 232300
TAFJMZ
TAF
TJMZ 232331Z 2400/2424 VRB05KT P6SM FEW020
     FM241530 29010KT P6SM VCSH SCT025 BKN040
     FM241800 09006KT P6SM VCTS SCT025CB BKN040
     FM242330 VRB05KT P6SM SCT025 SCT070
      AMD NOT SKED TIL 241100=

USA.gov is the U.S. government's official web portal to all federal, state and local government web resources and services.